sensor_id;sensor_type;location;lat;lon;timestamp;P1;durP1;ratioP1;P2;durP2;ratioP2
9409;SDS011;4744;52.576;13.568;2024-03-06T00:00:01;16.42;;;9.30;;
9409;SDS011;4744;52.576;13.568;2024-03-06T00:02:29;19.60;;;10.50;;
9409;SDS011;4744;52.576;13.568;2024-03-06T00:04:56;20.58;;;9.77;;
9409;SDS011;4744;52.576;13.568;2024-03-06T00:07:25;21.45;;;10.63;;
9409;SDS011;4744;52.576;13.568;2024-03-06T00:09:52;18.13;;;9.45;;
9409;SDS011;4744;52.576;13.568;2024-03-06T00:12:19;19.65;;;10.13;;
9409;SDS011;4744;52.576;13.568;2024-03-06T00:14:46;17.23;;;9.65;;
9409;SDS011;4744;52.576;13.568;2024-03-06T00:17:13;16.92;;;9.23;;
9409;SDS011;4744;52.576;13.568;2024-03-06T00:19:40;17.58;;;9.10;;
9409;SDS011;4744;52.576;13.568;2024-03-06T00:22:08;18.23;;;10.07;;
9409;SDS011;4744;52.576;13.568;2024-03-06T00:24:36;18.17;;;9.77;;
9409;SDS011;4744;52.576;13.568;2024-03-06T00:27:03;18.08;;;10.40;;
9409;SDS011;4744;52.576;13.568;2024-03-06T00:29:31;15.05;;;8.90;;
9409;SDS011;4744;52.576;13.568;2024-03-06T00:31:57;19.15;;;9.52;;
9409;SDS011;4744;52.576;13.568;2024-03-06T00:34:24;19.48;;;10.07;;
9409;SDS011;4744;52.576;13.568;2024-03-06T00:36:52;16.90;;;8.70;;
9409;SDS011;4744;52.576;13.568;2024-03-06T00:39:20;16.20;;;9.27;;
9409;SDS011;4744;52.576;13.568;2024-03-06T00:41:48;19.00;;;9.82;;
9409;SDS011;4744;52.576;13.568;2024-03-06T00:44:15;20.77;;;11.07;;
9409;SDS011;4744;52.576;13.568;2024-03-06T00:46:42;14.07;;;8.98;;
9409;SDS011;4744;52.576;13.568;2024-03-06T00:49:09;19.38;;;9.85;;
9409;SDS011;4744;52.576;13.568;2024-03-06T00:51:36;16.33;;;9.75;;
9409;SDS011;4744;52.576;13.568;2024-03-06T00:54:04;18.10;;;10.07;;
9409;SDS011;4744;52.576;13.568;2024-03-06T00:56:31;17.70;;;9.10;;
9409;SDS011;4744;52.576;13.568;2024-03-06T00:58:59;21.85;;;10.52;;
9409;SDS011;4744;52.576;13.568;2024-03-06T01:01:26;17.88;;;9.23;;
9409;SDS011;4744;52.576;13.568;2024-03-06T01:03:54;16.83;;;10.07;;
9409;SDS011;4744;52.576;13.568;2024-03-06T01:06:21;16.33;;;9.85;;
9409;SDS011;4744;52.576;13.568;2024-03-06T01:08:48;18.83;;;10.18;;
9409;SDS011;4744;52.576;13.568;2024-03-06T01:11:15;18.75;;;9.88;;
9409;SDS011;4744;52.576;13.568;2024-03-06T01:13:41;20.10;;;10.15;;
9409;SDS011;4744;52.576;13.568;2024-03-06T01:16:10;14.40;;;8.52;;
9409;SDS011;4744;52.576;13.568;2024-03-06T01:18:37;15.05;;;8.13;;
9409;SDS011;4744;52.576;13.568;2024-03-06T01:21:04;20.45;;;9.63;;
9409;SDS011;4744;52.576;13.568;2024-03-06T01:23:31;15.00;;;8.73;;
9409;SDS011;4744;52.576;13.568;2024-03-06T01:25:57;18.23;;;9.30;;
9409;SDS011;4744;52.576;13.568;2024-03-06T01:28:24;16.08;;;8.65;;
9409;SDS011;4744;52.576;13.568;2024-03-06T01:30:51;18.83;;;9.75;;
9409;SDS011;4744;52.576;13.568;2024-03-06T01:33:20;17.27;;;9.43;;
9409;SDS011;4744;52.576;13.568;2024-03-06T01:35:48;15.73;;;8.65;;
9409;SDS011;4744;52.576;13.568;2024-03-06T01:38:15;18.73;;;9.52;;
9409;SDS011;4744;52.576;13.568;2024-03-06T01:40:42;19.75;;;10.05;;
9409;SDS011;4744;52.576;13.568;2024-03-06T01:43:17;15.65;;;9.02;;
9409;SDS011;4744;52.576;13.568;2024-03-06T01:45:47;17.85;;;9.40;;
9409;SDS011;4744;52.576;13.568;2024-03-06T01:48:14;17.02;;;9.38;;
9409;SDS011;4744;52.576;13.568;2024-03-06T01:50:43;21.67;;;10.95;;
9409;SDS011;4744;52.576;13.568;2024-03-06T01:53:11;18.90;;;9.73;;
9409;SDS011;4744;52.576;13.568;2024-03-06T01:55:41;18.70;;;10.05;;
9409;SDS011;4744;52.576;13.568;2024-03-06T01:58:08;24.25;;;10.45;;
9409;SDS011;4744;52.576;13.568;2024-03-06T02:00:35;16.90;;;10.52;;
9409;SDS011;4744;52.576;13.568;2024-03-06T02:03:03;18.60;;;10.70;;
9409;SDS011;4744;52.576;13.568;2024-03-06T02:05:30;20.40;;;10.13;;
9409;SDS011;4744;52.576;13.568;2024-03-06T02:07:59;19.67;;;10.18;;
9409;SDS011;4744;52.576;13.568;2024-03-06T02:10:27;24.27;;;10.90;;
9409;SDS011;4744;52.576;13.568;2024-03-06T02:12:54;21.80;;;10.82;;
9409;SDS011;4744;52.576;13.568;2024-03-06T02:15:21;22.38;;;11.38;;
9409;SDS011;4744;52.576;13.568;2024-03-06T02:17:49;20.42;;;9.48;;
9409;SDS011;4744;52.576;13.568;2024-03-06T02:20:16;22.95;;;9.43;;
9409;SDS011;4744;52.576;13.568;2024-03-06T02:22:44;21.70;;;10.02;;
9409;SDS011;4744;52.576;13.568;2024-03-06T02:25:11;19.02;;;9.50;;
9409;SDS011;4744;52.576;13.568;2024-03-06T02:27:40;20.52;;;9.55;;
9409;SDS011;4744;52.576;13.568;2024-03-06T02:30:07;20.23;;;10.15;;
9409;SDS011;4744;52.576;13.568;2024-03-06T02:32:34;16.55;;;9.75;;
9409;SDS011;4744;52.576;13.568;2024-03-06T02:35:01;22.73;;;10.23;;
9409;SDS011;4744;52.576;13.568;2024-03-06T02:37:31;15.73;;;9.13;;
9409;SDS011;4744;52.576;13.568;2024-03-06T02:39:59;19.73;;;9.30;;
9409;SDS011;4744;52.576;13.568;2024-03-06T02:42:27;18.63;;;9.57;;
9409;SDS011;4744;52.576;13.568;2024-03-06T02:44:54;15.55;;;8.48;;
9409;SDS011;4744;52.576;13.568;2024-03-06T02:47:21;15.73;;;8.70;;
9409;SDS011;4744;52.576;13.568;2024-03-06T02:49:48;16.85;;;8.50;;
9409;SDS011;4744;52.576;13.568;2024-03-06T02:52:15;14.90;;;8.70;;
9409;SDS011;4744;52.576;13.568;2024-03-06T02:54:42;16.15;;;8.68;;
9409;SDS011;4744;52.576;13.568;2024-03-06T02:57:10;29.60;;;9.50;;
9409;SDS011;4744;52.576;13.568;2024-03-06T02:59:39;15.48;;;9.30;;
9409;SDS011;4744;52.576;13.568;2024-03-06T03:02:06;18.50;;;9.20;;
9409;SDS011;4744;52.576;13.568;2024-03-06T03:04:33;17.45;;;9.20;;
9409;SDS011;4744;52.576;13.568;2024-03-06T03:06:59;17.95;;;8.73;;
9409;SDS011;4744;52.576;13.568;2024-03-06T03:09:26;15.90;;;9.38;;
9409;SDS011;4744;52.576;13.568;2024-03-06T03:11:54;16.80;;;8.50;;
9409;SDS011;4744;52.576;13.568;2024-03-06T03:14:23;13.68;;;7.97;;
9409;SDS011;4744;52.576;13.568;2024-03-06T03:16:50;15.95;;;8.95;;
9409;SDS011;4744;52.576;13.568;2024-03-06T03:19:18;17.80;;;9.23;;
9409;SDS011;4744;52.576;13.568;2024-03-06T03:21:45;16.25;;;8.68;;
9409;SDS011;4744;52.576;13.568;2024-03-06T03:24:12;16.13;;;8.98;;
9409;SDS011;4744;52.576;13.568;2024-03-06T03:26:39;16.85;;;8.90;;
9409;SDS011;4744;52.576;13.568;2024-03-06T03:29:07;18.33;;;8.77;;
9409;SDS011;4744;52.576;13.568;2024-03-06T03:31:35;14.77;;;8.18;;
9409;SDS011;4744;52.576;13.568;2024-03-06T03:34:03;13.13;;;7.50;;
9409;SDS011;4744;52.576;13.568;2024-03-06T03:36:31;17.20;;;8.50;;
9409;SDS011;4744;52.576;13.568;2024-03-06T03:38:58;14.40;;;9.07;;
9409;SDS011;4744;52.576;13.568;2024-03-06T03:41:25;19.70;;;8.75;;
9409;SDS011;4744;52.576;13.568;2024-03-06T03:43:52;15.40;;;8.75;;
9409;SDS011;4744;52.576;13.568;2024-03-06T03:46:19;15.27;;;7.68;;
9409;SDS011;4744;52.576;13.568;2024-03-06T03:48:47;15.25;;;8.55;;
9409;SDS011;4744;52.576;13.568;2024-03-06T03:51:14;13.02;;;7.50;;
9409;SDS011;4744;52.576;13.568;2024-03-06T03:53:41;15.02;;;7.43;;
9409;SDS011;4744;52.576;13.568;2024-03-06T03:56:08;13.57;;;8.38;;
9409;SDS011;4744;52.576;13.568;2024-03-06T03:58:35;12.80;;;7.70;;
9409;SDS011;4744;52.576;13.568;2024-03-06T04:01:03;16.25;;;7.85;;
9409;SDS011;4744;52.576;13.568;2024-03-06T04:03:30;12.93;;;7.25;;
9409;SDS011;4744;52.576;13.568;2024-03-06T04:05:59;14.05;;;7.85;;
9409;SDS011;4744;52.576;13.568;2024-03-06T04:08:26;13.88;;;7.60;;
9409;SDS011;4744;52.576;13.568;2024-03-06T04:10:53;14.05;;;7.88;;
9409;SDS011;4744;52.576;13.568;2024-03-06T04:13:20;14.82;;;7.72;;
9409;SDS011;4744;52.576;13.568;2024-03-06T04:15:47;14.15;;;7.78;;
9409;SDS011;4744;52.576;13.568;2024-03-06T04:18:14;13.10;;;6.47;;
9409;SDS011;4744;52.576;13.568;2024-03-06T04:20:41;16.08;;;8.70;;
9409;SDS011;4744;52.576;13.568;2024-03-06T04:23:09;14.25;;;7.68;;
9409;SDS011;4744;52.576;13.568;2024-03-06T04:25:36;12.20;;;7.30;;
9409;SDS011;4744;52.576;13.568;2024-03-06T04:28:04;15.23;;;8.32;;
9409;SDS011;4744;52.576;13.568;2024-03-06T04:30:32;15.63;;;7.93;;
9409;SDS011;4744;52.576;13.568;2024-03-06T04:32:59;20.33;;;9.07;;
9409;SDS011;4744;52.576;13.568;2024-03-06T04:35:26;15.23;;;8.18;;
9409;SDS011;4744;52.576;13.568;2024-03-06T04:37:53;13.60;;;7.95;;
9409;SDS011;4744;52.576;13.568;2024-03-06T04:40:22;13.23;;;7.05;;
9409;SDS011;4744;52.576;13.568;2024-03-06T04:42:50;16.10;;;8.02;;
9409;SDS011;4744;52.576;13.568;2024-03-06T04:45:17;16.05;;;8.52;;
9409;SDS011;4744;52.576;13.568;2024-03-06T04:47:44;13.10;;;6.97;;
9409;SDS011;4744;52.576;13.568;2024-03-06T04:50:11;13.68;;;7.97;;
9409;SDS011;4744;52.576;13.568;2024-03-06T04:52:39;11.55;;;6.95;;
9409;SDS011;4744;52.576;13.568;2024-03-06T04:55:06;13.30;;;6.70;;
9409;SDS011;4744;52.576;13.568;2024-03-06T04:57:38;12.60;;;7.10;;
9409;SDS011;4744;52.576;13.568;2024-03-06T05:00:07;14.10;;;7.32;;
9409;SDS011;4744;52.576;13.568;2024-03-06T05:02:35;15.68;;;8.05;;
9409;SDS011;4744;52.576;13.568;2024-03-06T05:05:03;16.40;;;7.13;;
9409;SDS011;4744;52.576;13.568;2024-03-06T05:07:31;12.52;;;7.28;;
9409;SDS011;4744;52.576;13.568;2024-03-06T05:09:58;13.88;;;7.70;;
9409;SDS011;4744;52.576;13.568;2024-03-06T05:12:25;23.08;;;8.05;;
9409;SDS011;4744;52.576;13.568;2024-03-06T05:14:54;17.00;;;8.18;;
9409;SDS011;4744;52.576;13.568;2024-03-06T05:17:22;16.35;;;8.95;;
9409;SDS011;4744;52.576;13.568;2024-03-06T05:19:49;15.10;;;8.02;;
9409;SDS011;4744;52.576;13.568;2024-03-06T05:22:16;19.15;;;8.65;;
9409;SDS011;4744;52.576;13.568;2024-03-06T05:24:43;18.10;;;9.93;;
9409;SDS011;4744;52.576;13.568;2024-03-06T05:27:10;20.38;;;9.98;;
9409;SDS011;4744;52.576;13.568;2024-03-06T05:29:41;18.85;;;9.65;;
9409;SDS011;4744;52.576;13.568;2024-03-06T05:32:10;17.88;;;9.20;;
9409;SDS011;4744;52.576;13.568;2024-03-06T05:34:37;21.00;;;9.75;;
9409;SDS011;4744;52.576;13.568;2024-03-06T05:37:04;21.73;;;10.88;;
9409;SDS011;4744;52.576;13.568;2024-03-06T05:39:32;24.20;;;10.85;;
9409;SDS011;4744;52.576;13.568;2024-03-06T05:42:00;21.23;;;10.20;;
9409;SDS011;4744;52.576;13.568;2024-03-06T05:44:29;21.35;;;10.20;;
9409;SDS011;4744;52.576;13.568;2024-03-06T05:46:57;21.38;;;10.35;;
9409;SDS011;4744;52.576;13.568;2024-03-06T05:49:29;21.80;;;11.13;;
9409;SDS011;4744;52.576;13.568;2024-03-06T05:51:57;21.48;;;9.82;;
9409;SDS011;4744;52.576;13.568;2024-03-06T05:54:25;19.80;;;9.80;;
9409;SDS011;4744;52.576;13.568;2024-03-06T05:56:54;21.58;;;10.30;;
9409;SDS011;4744;52.576;13.568;2024-03-06T05:59:22;23.20;;;10.68;;
9409;SDS011;4744;52.576;13.568;2024-03-06T06:01:50;21.23;;;10.20;;
9409;SDS011;4744;52.576;13.568;2024-03-06T06:04:17;18.75;;;10.50;;
9409;SDS011;4744;52.576;13.568;2024-03-06T06:06:47;23.92;;;11.65;;
9409;SDS011;4744;52.576;13.568;2024-03-06T06:09:15;27.83;;;11.25;;
9409;SDS011;4744;52.576;13.568;2024-03-06T06:11:43;21.23;;;11.85;;
9409;SDS011;4744;52.576;13.568;2024-03-06T06:14:12;26.92;;;10.95;;
9409;SDS011;4744;52.576;13.568;2024-03-06T06:16:40;34.40;;;10.90;;
9409;SDS011;4744;52.576;13.568;2024-03-06T06:19:08;23.63;;;11.20;;
9409;SDS011;4744;52.576;13.568;2024-03-06T06:21:35;23.40;;;11.50;;
9409;SDS011;4744;52.576;13.568;2024-03-06T06:24:05;26.65;;;11.52;;
9409;SDS011;4744;52.576;13.568;2024-03-06T06:26:33;25.10;;;11.25;;
9409;SDS011;4744;52.576;13.568;2024-03-06T06:29:01;25.55;;;11.88;;
9409;SDS011;4744;52.576;13.568;2024-03-06T06:31:29;25.48;;;11.88;;
9409;SDS011;4744;52.576;13.568;2024-03-06T06:33:56;23.35;;;10.98;;
9409;SDS011;4744;52.576;13.568;2024-03-06T06:36:24;25.05;;;11.93;;
9409;SDS011;4744;52.576;13.568;2024-03-06T06:38:52;25.17;;;12.20;;
9409;SDS011;4744;52.576;13.568;2024-03-06T06:41:22;25.08;;;11.98;;
9409;SDS011;4744;52.576;13.568;2024-03-06T06:43:49;29.42;;;12.13;;
9409;SDS011;4744;52.576;13.568;2024-03-06T06:46:17;25.55;;;11.25;;
9409;SDS011;4744;52.576;13.568;2024-03-06T06:48:46;26.33;;;12.02;;
9409;SDS011;4744;52.576;13.568;2024-03-06T06:51:14;24.90;;;11.07;;
9409;SDS011;4744;52.576;13.568;2024-03-06T06:53:41;24.55;;;12.32;;
9409;SDS011;4744;52.576;13.568;2024-03-06T06:56:09;22.98;;;11.15;;
9409;SDS011;4744;52.576;13.568;2024-03-06T06:58:38;27.48;;;12.25;;
9409;SDS011;4744;52.576;13.568;2024-03-06T07:01:08;24.25;;;11.52;;
9409;SDS011;4744;52.576;13.568;2024-03-06T07:03:36;23.85;;;11.02;;
9409;SDS011;4744;52.576;13.568;2024-03-06T07:06:03;29.42;;;11.75;;
9409;SDS011;4744;52.576;13.568;2024-03-06T07:08:32;19.05;;;10.02;;
9409;SDS011;4744;52.576;13.568;2024-03-06T07:11:00;23.48;;;11.93;;
9409;SDS011;4744;52.576;13.568;2024-03-06T07:13:27;22.65;;;11.18;;
9409;SDS011;4744;52.576;13.568;2024-03-06T07:15:57;26.77;;;11.30;;
9409;SDS011;4744;52.576;13.568;2024-03-06T07:18:24;25.63;;;12.88;;
9409;SDS011;4744;52.576;13.568;2024-03-06T07:20:52;24.33;;;11.55;;
9409;SDS011;4744;52.576;13.568;2024-03-06T07:23:19;26.80;;;12.80;;
9409;SDS011;4744;52.576;13.568;2024-03-06T07:25:47;30.60;;;12.68;;
9409;SDS011;4744;52.576;13.568;2024-03-06T07:28:16;26.75;;;12.95;;
9409;SDS011;4744;52.576;13.568;2024-03-06T07:30:44;26.83;;;12.90;;
9409;SDS011;4744;52.576;13.568;2024-03-06T07:33:14;25.98;;;12.20;;
9409;SDS011;4744;52.576;13.568;2024-03-06T07:35:42;31.30;;;11.98;;
9409;SDS011;4744;52.576;13.568;2024-03-06T07:38:09;25.25;;;12.27;;
9409;SDS011;4744;52.576;13.568;2024-03-06T07:40:36;24.83;;;12.27;;
9409;SDS011;4744;52.576;13.568;2024-03-06T07:43:04;26.13;;;12.40;;
9409;SDS011;4744;52.576;13.568;2024-03-06T07:45:31;25.05;;;12.27;;
9409;SDS011;4744;52.576;13.568;2024-03-06T07:47:59;25.38;;;12.05;;
9409;SDS011;4744;52.576;13.568;2024-03-06T07:50:28;22.17;;;13.07;;
9409;SDS011;4744;52.576;13.568;2024-03-06T07:52:56;21.60;;;11.65;;
9409;SDS011;4744;52.576;13.568;2024-03-06T07:55:23;22.42;;;10.85;;
9409;SDS011;4744;52.576;13.568;2024-03-06T07:57:51;24.38;;;10.73;;
9409;SDS011;4744;52.576;13.568;2024-03-06T08:00:19;22.10;;;11.43;;
9409;SDS011;4744;52.576;13.568;2024-03-06T08:02:50;20.20;;;11.07;;
9409;SDS011;4744;52.576;13.568;2024-03-06T08:05:17;18.67;;;10.13;;
9409;SDS011;4744;52.576;13.568;2024-03-06T08:07:47;21.02;;;11.30;;
9409;SDS011;4744;52.576;13.568;2024-03-06T08:10:14;19.40;;;10.85;;
9409;SDS011;4744;52.576;13.568;2024-03-06T08:12:44;20.20;;;9.80;;
9409;SDS011;4744;52.576;13.568;2024-03-06T08:15:13;18.73;;;9.00;;
9409;SDS011;4744;52.576;13.568;2024-03-06T08:17:41;16.85;;;9.52;;
9409;SDS011;4744;52.576;13.568;2024-03-06T08:20:09;18.70;;;9.73;;
9409;SDS011;4744;52.576;13.568;2024-03-06T08:22:38;16.38;;;9.20;;
9409;SDS011;4744;52.576;13.568;2024-03-06T08:25:08;16.15;;;9.52;;
9409;SDS011;4744;52.576;13.568;2024-03-06T08:27:36;15.48;;;8.27;;
9409;SDS011;4744;52.576;13.568;2024-03-06T08:30:04;16.50;;;8.88;;
9409;SDS011;4744;52.576;13.568;2024-03-06T08:32:32;15.60;;;9.20;;
9409;SDS011;4744;52.576;13.568;2024-03-06T08:35:00;15.15;;;7.93;;
9409;SDS011;4744;52.576;13.568;2024-03-06T08:37:27;13.73;;;8.02;;
9409;SDS011;4744;52.576;13.568;2024-03-06T08:39:54;17.40;;;8.02;;
9409;SDS011;4744;52.576;13.568;2024-03-06T08:42:22;14.13;;;7.85;;
9409;SDS011;4744;52.576;13.568;2024-03-06T08:44:49;13.98;;;7.88;;
9409;SDS011;4744;52.576;13.568;2024-03-06T08:47:16;15.02;;;7.85;;
9409;SDS011;4744;52.576;13.568;2024-03-06T08:49:43;11.70;;;7.22;;
9409;SDS011;4744;52.576;13.568;2024-03-06T08:52:10;14.05;;;8.20;;
9409;SDS011;4744;52.576;13.568;2024-03-06T08:54:37;13.13;;;7.65;;
9409;SDS011;4744;52.576;13.568;2024-03-06T08:59:35;12.73;;;7.07;;
9409;SDS011;4744;52.576;13.568;2024-03-06T09:02:11;12.85;;;7.53;;
9409;SDS011;4744;52.576;13.568;2024-03-06T09:04:39;13.68;;;7.10;;
9409;SDS011;4744;52.576;13.568;2024-03-06T09:07:06;11.25;;;6.95;;
9409;SDS011;4744;52.576;13.568;2024-03-06T09:09:34;12.80;;;7.10;;
9409;SDS011;4744;52.576;13.568;2024-03-06T09:12:01;10.73;;;5.78;;
9409;SDS011;4744;52.576;13.568;2024-03-06T09:14:30;15.10;;;8.05;;
9409;SDS011;4744;52.576;13.568;2024-03-06T09:16:59;12.85;;;6.45;;
9409;SDS011;4744;52.576;13.568;2024-03-06T09:19:26;13.52;;;7.60;;
9409;SDS011;4744;52.576;13.568;2024-03-06T09:21:53;11.30;;;6.50;;
9409;SDS011;4744;52.576;13.568;2024-03-06T09:24:20;12.93;;;7.63;;
9409;SDS011;4744;52.576;13.568;2024-03-06T09:26:48;11.70;;;6.85;;
9409;SDS011;4744;52.576;13.568;2024-03-06T09:29:15;10.82;;;7.00;;
9409;SDS011;4744;52.576;13.568;2024-03-06T09:31:42;11.05;;;7.07;;
9409;SDS011;4744;52.576;13.568;2024-03-06T09:34:11;13.23;;;7.57;;
9409;SDS011;4744;52.576;13.568;2024-03-06T09:36:39;13.50;;;7.72;;
9409;SDS011;4744;52.576;13.568;2024-03-06T09:39:10;13.13;;;7.22;;
9409;SDS011;4744;52.576;13.568;2024-03-06T09:41:37;15.45;;;8.05;;
9409;SDS011;4744;52.576;13.568;2024-03-06T09:46:33;10.23;;;6.75;;
9409;SDS011;4744;52.576;13.568;2024-03-06T09:49:01;13.75;;;7.45;;
9409;SDS011;4744;52.576;13.568;2024-03-06T09:51:30;13.27;;;7.78;;
9409;SDS011;4744;52.576;13.568;2024-03-06T09:53:57;12.20;;;7.57;;
9409;SDS011;4744;52.576;13.568;2024-03-06T09:56:25;11.60;;;7.43;;
9409;SDS011;4744;52.576;13.568;2024-03-06T09:58:52;12.95;;;7.88;;
9409;SDS011;4744;52.576;13.568;2024-03-06T10:01:19;14.68;;;7.57;;
9409;SDS011;4744;52.576;13.568;2024-03-06T10:03:47;12.25;;;6.90;;
9409;SDS011;4744;52.576;13.568;2024-03-06T10:06:15;13.50;;;7.38;;
9409;SDS011;4744;52.576;13.568;2024-03-06T10:08:44;13.63;;;6.85;;
9409;SDS011;4744;52.576;13.568;2024-03-06T10:11:12;12.50;;;6.55;;
9409;SDS011;4744;52.576;13.568;2024-03-06T10:13:39;12.98;;;6.45;;
9409;SDS011;4744;52.576;13.568;2024-03-06T10:16:06;12.65;;;6.93;;
9409;SDS011;4744;52.576;13.568;2024-03-06T10:21:04;11.43;;;6.25;;
9409;SDS011;4744;52.576;13.568;2024-03-06T10:23:31;11.32;;;7.60;;
9409;SDS011;4744;52.576;13.568;2024-03-06T10:26:01;13.43;;;7.05;;
9409;SDS011;4744;52.576;13.568;2024-03-06T10:28:28;10.18;;;6.15;;
9409;SDS011;4744;52.576;13.568;2024-03-06T10:31:02;11.27;;;7.22;;
9409;SDS011;4744;52.576;13.568;2024-03-06T10:33:32;12.15;;;7.15;;
9409;SDS011;4744;52.576;13.568;2024-03-06T10:36:04;13.00;;;7.07;;
9409;SDS011;4744;52.576;13.568;2024-03-06T10:38:31;12.00;;;7.05;;
9409;SDS011;4744;52.576;13.568;2024-03-06T10:41:04;13.23;;;7.10;;
9409;SDS011;4744;52.576;13.568;2024-03-06T10:43:34;14.30;;;8.02;;
9409;SDS011;4744;52.576;13.568;2024-03-06T10:46:05;14.40;;;8.23;;
9409;SDS011;4744;52.576;13.568;2024-03-06T10:48:36;12.93;;;8.30;;
9409;SDS011;4744;52.576;13.568;2024-03-06T10:51:05;14.30;;;8.48;;
9409;SDS011;4744;52.576;13.568;2024-03-06T10:53:33;14.35;;;9.52;;
9409;SDS011;4744;52.576;13.568;2024-03-06T10:56:01;14.55;;;9.15;;
9409;SDS011;4744;52.576;13.568;2024-03-06T10:58:33;14.18;;;8.90;;
9409;SDS011;4744;52.576;13.568;2024-03-06T11:01:01;18.23;;;9.70;;
9409;SDS011;4744;52.576;13.568;2024-03-06T11:03:29;15.00;;;8.43;;
9409;SDS011;4744;52.576;13.568;2024-03-06T11:05:56;17.10;;;10.27;;
9409;SDS011;4744;52.576;13.568;2024-03-06T11:08:23;16.65;;;10.23;;
9409;SDS011;4744;52.576;13.568;2024-03-06T11:10:52;15.15;;;9.55;;
9409;SDS011;4744;52.576;13.568;2024-03-06T11:13:22;16.58;;;9.63;;
9409;SDS011;4744;52.576;13.568;2024-03-06T11:15:52;16.65;;;9.85;;
9409;SDS011;4744;52.576;13.568;2024-03-06T11:18:41;15.45;;;9.05;;
9409;SDS011;4744;52.576;13.568;2024-03-06T11:21:27;16.17;;;9.82;;
9409;SDS011;4744;52.576;13.568;2024-03-06T11:26:45;17.90;;;11.15;;
9409;SDS011;4744;52.576;13.568;2024-03-06T11:29:13;20.83;;;12.07;;
9409;SDS011;4744;52.576;13.568;2024-03-06T11:31:57;21.55;;;13.05;;
9409;SDS011;4744;52.576;13.568;2024-03-06T11:34:28;20.17;;;13.23;;
9409;SDS011;4744;52.576;13.568;2024-03-06T11:36:56;20.73;;;14.15;;
9409;SDS011;4744;52.576;13.568;2024-03-06T11:39:24;21.40;;;13.35;;
9409;SDS011;4744;52.576;13.568;2024-03-06T11:41:54;21.27;;;12.23;;
9409;SDS011;4744;52.576;13.568;2024-03-06T11:44:21;21.25;;;13.18;;
9409;SDS011;4744;52.576;13.568;2024-03-06T11:46:56;17.77;;;11.70;;
9409;SDS011;4744;52.576;13.568;2024-03-06T11:49:26;15.75;;;10.23;;
9409;SDS011;4744;52.576;13.568;2024-03-06T11:51:54;16.98;;;9.40;;
9409;SDS011;4744;52.576;13.568;2024-03-06T11:54:22;14.90;;;9.27;;
9409;SDS011;4744;52.576;13.568;2024-03-06T11:56:52;14.05;;;9.05;;
9409;SDS011;4744;52.576;13.568;2024-03-06T11:59:20;13.55;;;9.15;;
9409;SDS011;4744;52.576;13.568;2024-03-06T12:01:48;13.35;;;9.32;;
9409;SDS011;4744;52.576;13.568;2024-03-06T12:04:16;15.52;;;9.68;;
9409;SDS011;4744;52.576;13.568;2024-03-06T12:06:45;14.00;;;9.48;;
9409;SDS011;4744;52.576;13.568;2024-03-06T12:09:12;14.80;;;9.90;;
9409;SDS011;4744;52.576;13.568;2024-03-06T12:11:39;13.98;;;9.43;;
9409;SDS011;4744;52.576;13.568;2024-03-06T12:14:08;15.27;;;9.82;;
9409;SDS011;4744;52.576;13.568;2024-03-06T12:16:39;15.07;;;9.63;;
9409;SDS011;4744;52.576;13.568;2024-03-06T12:19:06;15.32;;;8.98;;
9409;SDS011;4744;52.576;13.568;2024-03-06T12:21:36;13.85;;;9.05;;
9409;SDS011;4744;52.576;13.568;2024-03-06T12:24:05;14.27;;;9.23;;
9409;SDS011;4744;52.576;13.568;2024-03-06T12:26:33;15.25;;;9.07;;
9409;SDS011;4744;52.576;13.568;2024-03-06T12:29:04;15.50;;;9.75;;
9409;SDS011;4744;52.576;13.568;2024-03-06T12:31:33;15.98;;;10.10;;
9409;SDS011;4744;52.576;13.568;2024-03-06T12:34:01;15.27;;;9.43;;
9409;SDS011;4744;52.576;13.568;2024-03-06T12:36:28;16.90;;;10.23;;
9409;SDS011;4744;52.576;13.568;2024-03-06T12:38:57;20.10;;;11.45;;
9409;SDS011;4744;52.576;13.568;2024-03-06T12:41:25;17.85;;;10.02;;
9409;SDS011;4744;52.576;13.568;2024-03-06T12:43:53;17.58;;;10.23;;
9409;SDS011;4744;52.576;13.568;2024-03-06T12:46:21;17.85;;;9.35;;
9409;SDS011;4744;52.576;13.568;2024-03-06T12:48:49;11.77;;;6.97;;
9409;SDS011;4744;52.576;13.568;2024-03-06T12:51:16;15.60;;;9.07;;
9409;SDS011;4744;52.576;13.568;2024-03-06T12:53:43;17.40;;;8.82;;
9409;SDS011;4744;52.576;13.568;2024-03-06T12:56:11;19.40;;;10.38;;
9409;SDS011;4744;52.576;13.568;2024-03-06T12:58:38;23.42;;;11.10;;
9409;SDS011;4744;52.576;13.568;2024-03-06T13:01:05;24.45;;;12.25;;
9409;SDS011;4744;52.576;13.568;2024-03-06T13:03:32;28.70;;;12.73;;
9409;SDS011;4744;52.576;13.568;2024-03-06T13:05:59;29.00;;;13.18;;
9409;SDS011;4744;52.576;13.568;2024-03-06T13:08:26;26.08;;;13.60;;
9409;SDS011;4744;52.576;13.568;2024-03-06T13:10:53;28.90;;;13.10;;
9409;SDS011;4744;52.576;13.568;2024-03-06T13:13:22;25.95;;;13.63;;
9409;SDS011;4744;52.576;13.568;2024-03-06T13:15:50;28.13;;;12.88;;
9409;SDS011;4744;52.576;13.568;2024-03-06T13:18:16;28.27;;;12.63;;
9409;SDS011;4744;52.576;13.568;2024-03-06T13:20:44;21.85;;;10.80;;
9409;SDS011;4744;52.576;13.568;2024-03-06T13:23:11;24.85;;;13.07;;
9409;SDS011;4744;52.576;13.568;2024-03-06T13:25:38;26.33;;;12.80;;
9409;SDS011;4744;52.576;13.568;2024-03-06T13:28:05;24.75;;;13.85;;
9409;SDS011;4744;52.576;13.568;2024-03-06T13:30:33;22.13;;;12.20;;
9409;SDS011;4744;52.576;13.568;2024-03-06T13:33:00;25.88;;;13.32;;
9409;SDS011;4744;52.576;13.568;2024-03-06T13:35:27;29.83;;;14.32;;
9409;SDS011;4744;52.576;13.568;2024-03-06T13:37:54;19.65;;;10.68;;
9409;SDS011;4744;52.576;13.568;2024-03-06T13:40:21;23.70;;;11.45;;
9409;SDS011;4744;52.576;13.568;2024-03-06T13:42:48;20.73;;;10.23;;
9409;SDS011;4744;52.576;13.568;2024-03-06T13:45:14;24.35;;;10.80;;
9409;SDS011;4744;52.576;13.568;2024-03-06T13:47:43;24.73;;;11.23;;
9409;SDS011;4744;52.576;13.568;2024-03-06T13:50:10;28.73;;;11.70;;
9409;SDS011;4744;52.576;13.568;2024-03-06T13:52:38;26.27;;;12.02;;
9409;SDS011;4744;52.576;13.568;2024-03-06T13:55:06;29.48;;;12.55;;
9409;SDS011;4744;52.576;13.568;2024-03-06T13:57:35;33.80;;;13.52;;
9409;SDS011;4744;52.576;13.568;2024-03-06T14:00:03;31.38;;;13.80;;
9409;SDS011;4744;52.576;13.568;2024-03-06T14:02:31;27.75;;;11.25;;
9409;SDS011;4744;52.576;13.568;2024-03-06T14:05:00;28.50;;;13.20;;
9409;SDS011;4744;52.576;13.568;2024-03-06T14:07:26;32.05;;;11.77;;
9409;SDS011;4744;52.576;13.568;2024-03-06T14:09:54;33.55;;;11.93;;
9409;SDS011;4744;52.576;13.568;2024-03-06T14:12:22;33.75;;;12.93;;
9409;SDS011;4744;52.576;13.568;2024-03-06T14:14:49;34.40;;;13.55;;
9409;SDS011;4744;52.576;13.568;2024-03-06T14:17:16;34.33;;;13.10;;
9409;SDS011;4744;52.576;13.568;2024-03-06T14:19:43;38.13;;;15.07;;
9409;SDS011;4744;52.576;13.568;2024-03-06T14:22:12;36.70;;;13.68;;
9409;SDS011;4744;52.576;13.568;2024-03-06T14:24:38;33.33;;;14.27;;
9409;SDS011;4744;52.576;13.568;2024-03-06T14:27:06;31.15;;;13.50;;
9409;SDS011;4744;52.576;13.568;2024-03-06T14:29:33;31.98;;;14.02;;
9409;SDS011;4744;52.576;13.568;2024-03-06T14:32:00;30.25;;;13.13;;
9409;SDS011;4744;52.576;13.568;2024-03-06T14:34:27;31.58;;;13.32;;
9409;SDS011;4744;52.576;13.568;2024-03-06T14:36:55;31.45;;;12.88;;
9409;SDS011;4744;52.576;13.568;2024-03-06T14:39:23;27.13;;;12.70;;
9409;SDS011;4744;52.576;13.568;2024-03-06T14:44:18;26.38;;;11.48;;
9409;SDS011;4744;52.576;13.568;2024-03-06T14:46:46;27.95;;;12.75;;
9409;SDS011;4744;52.576;13.568;2024-03-06T14:49:13;24.52;;;12.40;;
9409;SDS011;4744;52.576;13.568;2024-03-06T14:51:42;27.77;;;12.98;;
9409;SDS011;4744;52.576;13.568;2024-03-06T14:54:09;31.02;;;14.90;;
9409;SDS011;4744;52.576;13.568;2024-03-06T14:56:37;31.02;;;14.02;;
9409;SDS011;4744;52.576;13.568;2024-03-06T14:59:04;30.58;;;14.40;;